Time;durP1;ratioP1;P1;durP2;ratioP2;P2;SDS_P1;SDS_P2;PMS_P1;PMS_P2;Temp;Humidity;BMP_temperature;BMP_pressure;BME280_temperature;BME280_humidity;BME280_pressure;Samples;Min_cycle;Max_cycle;Signal;HPM_P1;HPM_P2
2023/03/09 00:01:25;;;;;;;0.47;0.47;;;9.60;99.90;;;;;;5051299;28;20203;-47
2023/03/09 00:03:52;;;;;;;0.67;0.67;;;9.70;99.90;;;;;;5053034;28;20337;-47
2023/03/09 00:06:19;;;;;;;0.80;0.70;;;9.70;99.90;;;;;;5053787;28;20665;-45
2023/03/09 00:08:47;;;;;;;1.73;0.90;;;9.70;99.90;;;;;;5053467;28;20250;-46
2023/03/09 00:11:16;;;;;;;1.47;0.80;;;9.50;99.90;;;;;;5054593;28;20628;-47
2023/03/09 00:13:43;;;;;;;0.73;0.70;;;9.40;99.90;;;;;;5050543;28;20701;-47
2023/03/09 00:16:12;;;;;;;0.70;0.57;;;9.40;99.90;;;;;;5053479;28;20196;-48
2023/03/09 00:18:40;;;;;;;0.60;0.60;;;9.40;99.90;;;;;;5054205;28;20669;-47
2023/03/09 00:21:07;;;;;;;1.00;1.00;;;9.40;99.90;;;;;;5052496;28;20720;-48
2023/03/09 00:23:36;;;;;;;2.00;0.97;;;9.40;99.90;;;;;;5052330;28;20580;-47
2023/03/09 00:26:04;;;;;;;1.90;0.70;;;9.30;99.90;;;;;;5052026;28;20198;-47
2023/03/09 00:28:31;;;;;;;0.93;0.93;;;9.30;99.90;;;;;;5052511;28;20208;-47
2023/03/09 00:31:02;;;;;;;0.80;0.80;;;9.30;99.90;;;;;;5045139;28;20620;-46
2023/03/09 00:33:29;;;;;;;0.50;0.50;;;9.30;99.90;;;;;;5053397;28;20222;-46
2023/03/09 00:35:58;;;;;;;1.43;0.70;;;9.30;99.90;;;;;;5048679;28;20207;-47
2023/03/09 00:38:25;;;;;;;1.77;0.80;;;9.30;99.90;;;;;;5051592;28;20634;-48
2023/03/09 00:40:52;;;;;;;0.70;0.70;;;9.20;99.90;;;;;;5053873;28;20269;-47
2023/03/09 00:43:19;;;;;;;1.43;1.33;;;9.20;99.90;;;;;;5052181;28;20223;-47
2023/03/09 00:45:46;;;;;;;1.27;1.27;;;9.10;99.90;;;;;;5052800;28;20207;-48
2023/03/09 00:48:13;;;;;;;1.97;1.13;;;9.10;99.90;;;;;;5052835;28;20254;-47
2023/03/09 00:50:40;;;;;;;1.90;0.80;;;9.00;99.90;;;;;;5050799;28;20624;-48
2023/03/09 00:53:08;;;;;;;0.90;0.90;;;9.00;99.90;;;;;;5051892;28;20275;-48
2023/03/09 00:55:35;;;;;;;1.07;0.90;;;9.00;99.90;;;;;;5051772;28;20222;-48
2023/03/09 00:58:02;;;;;;;1.57;1.07;;;9.00;99.90;;;;;;5052474;28;20204;-49
2023/03/09 01:00:32;;;;;;;1.23;1.10;;;8.90;99.90;;;;;;5052626;28;20728;-48
2023/03/09 01:02:59;;;;;;;1.00;0.80;;;8.80;99.90;;;;;;5043414;28;20251;-49
2023/03/09 01:05:26;;;;;;;0.90;0.90;;;8.80;99.90;;;;;;5051485;28;20224;-48
2023/03/09 01:07:54;;;;;;;1.20;1.10;;;8.80;99.90;;;;;;5052254;28;20261;-47
2023/03/09 01:10:23;;;;;;;1.50;1.40;;;8.80;99.90;;;;;;5052684;28;20203;-47
2023/03/09 01:12:50;;;;;;;0.70;0.70;;;8.80;99.90;;;;;;5053355;28;20198;-46
2023/03/09 01:15:17;;;;;;;1.33;0.97;;;8.90;99.90;;;;;;5050390;28;20205;-47
2023/03/09 01:17:48;;;;;;;0.97;0.97;;;8.90;99.90;;;;;;5051839;28;20265;-48
2023/03/09 01:20:15;;;;;;;0.60;0.60;;;8.90;99.90;;;;;;5052219;28;20282;-47
2023/03/09 01:22:42;;;;;;;0.70;0.70;;;9.10;99.90;;;;;;5053003;28;20258;-48
2023/03/09 01:25:10;;;;;;;1.10;1.00;;;9.20;99.90;;;;;;5049702;28;20273;-47
2023/03/09 01:27:38;;;;;;;0.50;0.50;;;9.30;99.90;;;;;;5050992;28;20626;-46
2023/03/09 01:30:06;;;;;;;0.70;0.70;;;9.40;99.90;;;;;;5052469;28;20196;-46
2023/03/09 01:32:33;;;;;;;1.23;1.13;;;9.30;99.90;;;;;;5052324;28;20208;-48
2023/03/09 01:35:01;;;;;;;1.47;1.37;;;9.30;99.90;;;;;;5050701;28;20223;-47
2023/03/09 01:37:28;;;;;;;1.43;1.20;;;9.30;99.90;;;;;;5051989;28;20208;-47
2023/03/09 01:39:55;;;;;;;1.60;1.60;;;9.30;99.90;;;;;;5050747;28;20199;-48
2023/03/09 01:42:21;;;;;;;1.73;1.10;;;9.20;99.90;;;;;;5051860;28;20203;-48
2023/03/09 01:45:22;;;;;;;1.40;1.30;;;9.20;99.90;;;;;;5050655;28;20226;-48
2023/03/09 01:47:53;;;;;;;1.17;0.97;;;9.20;99.90;;;;;;5051751;28;20255;-47
2023/03/09 01:50:25;;;;;;;1.63;1.53;;;9.20;99.90;;;;;;5051687;28;20729;-47
2023/03/09 01:52:56;;;;;;;1.63;1.53;;;9.20;99.90;;;;;;5050504;28;20211;-47
2023/03/09 01:55:28;;;;;;;1.80;1.70;;;9.30;99.90;;;;;;5050918;28;20271;-47
2023/03/09 01:57:57;;;;;;;2.10;1.10;;;9.30;99.90;;;;;;5051969;28;20257;-47
2023/03/09 02:00:26;;;;;;;2.60;1.10;;;9.40;99.90;;;;;;5051098;28;20672;-48
2023/03/09 02:02:59;;;;;;;1.67;1.00;;;9.50;99.90;;;;;;5049320;28;20551;-47
2023/03/09 02:05:32;;;;;;;0.80;0.80;;;9.50;99.90;;;;;;5047929;28;20223;-46
2023/03/09 02:08:00;;;;;;;0.83;0.80;;;9.60;99.90;;;;;;5043180;28;20265;-47
2023/03/09 02:10:31;;;;;;;1.17;1.07;;;9.60;99.90;;;;;;5051240;28;20205;-47
2023/03/09 02:13:02;;;;;;;0.53;0.50;;;9.50;99.90;;;;;;5043288;28;20212;-48
2023/03/09 02:15:29;;;;;;;0.60;0.60;;;9.60;99.90;;;;;;5051238;28;20200;-47
2023/03/09 02:17:57;;;;;;;0.60;0.60;;;9.50;99.90;;;;;;5050016;28;20200;-48
2023/03/09 02:20:33;;;;;;;2.80;0.70;;;9.50;99.90;;;;;;5049631;28;20272;-47
2023/03/09 02:23:00;;;;;;;0.80;0.60;;;9.50;99.90;;;;;;5046885;28;20232;-47
2023/03/09 02:25:34;;;;;;;2.77;0.70;;;9.50;99.90;;;;;;5050326;28;20221;-47
2023/03/09 02:28:04;;;;;;;1.07;1.07;;;9.40;99.90;;;;;;5050599;28;20199;-46
2023/03/09 02:30:33;;;;;;;0.70;0.70;;;9.30;99.90;;;;;;5047939;28;20216;-47
2023/03/09 02:33:05;;;;;;;0.87;0.87;;;9.30;99.90;;;;;;5042658;28;20204;-47
2023/03/09 02:35:32;;;;;;;0.50;0.50;;;9.20;99.90;;;;;;5048451;28;20257;-48
2023/03/09 02:37:59;;;;;;;0.70;0.70;;;9.30;99.90;;;;;;5042721;28;20749;-47
2023/03/09 02:40:29;;;;;;;0.47;0.47;;;9.30;99.90;;;;;;5051064;28;20199;-46
2023/03/09 02:42:57;;;;;;;0.40;0.40;;;9.30;99.90;;;;;;5050936;28;20550;-49
2023/03/09 02:45:27;;;;;;;0.70;0.43;;;9.30;99.90;;;;;;5049909;28;20754;-47
2023/03/09 02:47:56;;;;;;;1.43;0.50;;;9.40;99.90;;;;;;5051861;28;20257;-47
2023/03/09 02:50:23;;;;;;;1.00;1.00;;;9.40;99.90;;;;;;5051276;28;20207;-47
2023/03/09 02:52:51;;;;;;;0.77;0.77;;;9.40;99.90;;;;;;5050678;28;20207;-47
2023/03/09 02:55:19;;;;;;;0.73;0.50;;;9.50;99.90;;;;;;5049086;28;20200;-47
2023/03/09 02:57:48;;;;;;;1.40;0.70;;;9.50;99.90;;;;;;5050483;28;20243;-48
2023/03/09 03:00:17;;;;;;;4.70;1.30;;;9.50;99.90;;;;;;5045379;28;20343;-47
2023/03/09 03:02:45;;;;;;;0.60;0.60;;;9.50;99.90;;;;;;5050463;28;20253;-47
2023/03/09 03:05:12;;;;;;;1.77;0.63;;;9.50;99.90;;;;;;5049764;28;20215;-48
2023/03/09 03:07:39;;;;;;;0.97;0.53;;;9.50;99.90;;;;;;5048451;28;20261;-48
2023/03/09 03:10:06;;;;;;;2.27;0.60;;;9.70;99.90;;;;;;5050226;28;20196;-47
2023/03/09 03:12:33;;;;;;;1.60;0.80;;;9.80;99.90;;;;;;5050053;28;20207;-47
2023/03/09 03:15:00;;;;;;;0.50;0.50;;;9.80;99.90;;;;;;5047065;28;20217;-47
2023/03/09 03:17:27;;;;;;;0.37;0.37;;;9.70;99.90;;;;;;5046253;28;20673;-47
2023/03/09 03:19:56;;;;;;;4.47;0.40;;;9.70;99.90;;;;;;5047655;28;20254;-46
2023/03/09 03:22:23;;;;;;;0.10;0.10;;;9.70;99.90;;;;;;5050781;28;20209;-47
2023/03/09 03:24:50;;;;;;;0.10;0.10;;;9.70;99.90;;;;;;5053923;28;20219;-47
2023/03/09 03:27:17;;;;;;;1.30;0.37;;;9.70;99.90;;;;;;5054578;28;20573;-49
2023/03/09 03:29:45;;;;;;;0.90;0.13;;;9.80;99.90;;;;;;5055131;28;20204;-47
2023/03/09 03:32:12;;;;;;;0.10;0.10;;;9.80;99.90;;;;;;5054532;28;20200;-47
2023/03/09 03:34:39;;;;;;;0.10;0.10;;;9.70;99.90;;;;;;5054372;28;20632;-47
2023/03/09 03:37:08;;;;;;;0.10;0.07;;;9.60;99.90;;;;;;5053902;28;20620;-47
2023/03/09 03:39:34;;;;;;;0.00;0.00;;;9.50;99.90;;;;;;5055131;28;20240;-48
2023/03/09 03:42:01;;;;;;;0.10;0.10;;;9.50;99.90;;;;;;5055577;28;20285;-48
2023/03/09 03:44:28;;;;;;;0.23;0.10;;;9.40;99.90;;;;;;5054006;28;20229;-46
2023/03/09 03:46:55;;;;;;;0.10;0.10;;;9.30;99.90;;;;;;5054482;28;20203;-48
2023/03/09 03:49:22;;;;;;;1.07;0.17;;;9.30;99.90;;;;;;5055115;28;20199;-46
2023/03/09 03:51:49;;;;;;;3.30;0.37;;;9.20;99.90;;;;;;5053805;28;20207;-47
2023/03/09 03:54:18;;;;;;;0.80;0.20;;;9.10;99.90;;;;;;5051796;28;20609;-46
2023/03/09 03:56:45;;;;;;;1.20;0.30;;;9.10;99.90;;;;;;5054388;28;20253;-46
2023/03/09 03:59:12;;;;;;;0.20;0.20;;;9.10;99.90;;;;;;5051310;28;20261;-48
2023/03/09 04:01:39;;;;;;;0.33;0.30;;;9.10;99.90;;;;;;5055005;28;20194;-46
2023/03/09 04:04:07;;;;;;;0.43;0.40;;;9.10;99.90;;;;;;5053908;28;20285;-47
2023/03/09 04:06:35;;;;;;;3.23;0.40;;;9.10;99.90;;;;;;5045153;28;20222;-46
2023/03/09 04:09:02;;;;;;;1.13;0.50;;;9.10;99.90;;;;;;5054261;28;20242;-47
2023/03/09 04:11:30;;;;;;;3.30;0.53;;;9.10;99.90;;;;;;5051300;28;20250;-47
2023/03/09 04:13:57;;;;;;;0.50;0.50;;;9.10;99.90;;;;;;5053620;28;20270;-48
2023/03/09 04:16:24;;;;;;;2.67;0.50;;;9.10;99.90;;;;;;5052358;28;20616;-48
2023/03/09 04:18:51;;;;;;;1.73;0.40;;;9.10;99.90;;;;;;5053039;28;20261;-48
2023/03/09 04:21:18;;;;;;;1.07;0.40;;;9.10;99.90;;;;;;5053000;28;20633;-47
2023/03/09 04:23:45;;;;;;;0.50;0.50;;;9.10;99.90;;;;;;5052519;28;20222;-46
2023/03/09 04:26:12;;;;;;;0.30;0.20;;;9.10;99.90;;;;;;5053345;28;20215;-48
2023/03/09 04:28:40;;;;;;;0.50;0.50;;;9.10;99.90;;;;;;5054010;28;20199;-46
2023/03/09 04:31:07;;;;;;;0.70;0.53;;;9.10;99.90;;;;;;5051932;28;20725;-47
2023/03/09 04:33:34;;;;;;;0.40;0.40;;;9.00;99.90;;;;;;5053535;28;20778;-47
2023/03/09 04:36:01;;;;;;;0.83;0.50;;;9.00;99.90;;;;;;5051704;28;20246;-47
2023/03/09 04:38:28;;;;;;;0.60;0.60;;;8.90;99.90;;;;;;5050871;28;20264;-48
2023/03/09 04:40:55;;;;;;;0.60;0.43;;;8.90;99.90;;;;;;5054372;28;20329;-48
2023/03/09 04:43:22;;;;;;;1.10;0.70;;;8.90;99.90;;;;;;5053994;28;20647;-48
2023/03/09 04:45:50;;;;;;;0.67;0.67;;;8.80;99.90;;;;;;5049180;28;20278;-48
2023/03/09 04:48:17;;;;;;;1.90;1.17;;;8.80;99.90;;;;;;5053463;28;20199;-47
2023/03/09 04:50:45;;;;;;;0.60;0.50;;;8.80;99.90;;;;;;5054329;28;20273;-47
2023/03/09 04:53:12;;;;;;;2.30;0.90;;;8.80;99.90;;;;;;5053733;28;20266;-47
2023/03/09 04:55:39;;;;;;;1.63;0.87;;;8.80;99.90;;;;;;5044851;28;20253;-47
2023/03/09 04:58:06;;;;;;;1.00;0.90;;;8.90;99.90;;;;;;5051834;28;20200;-48
2023/03/09 05:00:33;;;;;;;1.20;0.43;;;8.80;99.90;;;;;;5052862;28;20216;-48
2023/03/09 05:03:02;;;;;;;0.50;0.40;;;8.80;99.90;;;;;;5053411;28;20191;-48
2023/03/09 05:05:28;;;;;;;2.40;0.60;;;8.80;99.90;;;;;;5044626;28;20705;-47
2023/03/09 05:07:55;;;;;;;0.70;0.70;;;8.80;99.90;;;;;;5053039;28;20233;-48
2023/03/09 05:10:22;;;;;;;1.03;0.50;;;8.80;99.90;;;;;;5061198;28;20663;-47
2023/03/09 05:12:51;;;;;;;1.00;0.70;;;8.80;99.90;;;;;;5067084;28;20205;-48
2023/03/09 05:15:18;;;;;;;1.47;0.60;;;8.80;99.90;;;;;;5047573;28;20212;-48
2023/03/09 05:17:45;;;;;;;1.87;1.20;;;8.90;99.90;;;;;;5051938;28;20615;-47
2023/03/09 05:20:14;;;;;;;2.33;1.50;;;9.00;99.90;;;;;;5053228;28;20200;-47
2023/03/09 05:22:41;;;;;;;2.40;0.53;;;9.00;99.90;;;;;;5051740;28;20635;-49
2023/03/09 05:25:08;;;;;;;3.30;0.40;;;9.00;99.90;;;;;;5053050;28;20320;-46
2023/03/09 05:27:36;;;;;;;0.93;0.40;;;9.00;99.90;;;;;;5052881;28;20629;-47
2023/03/09 05:30:03;;;;;;;2.57;0.50;;;9.00;99.90;;;;;;5049451;28;20631;-47
2023/03/09 05:32:30;;;;;;;1.63;0.30;;;8.90;99.90;;;;;;5052697;28;20202;-47
2023/03/09 05:34:57;;;;;;;0.57;0.40;;;8.80;99.90;;;;;;5052478;28;20277;-47
2023/03/09 05:37:26;;;;;;;2.07;0.40;;;8.70;99.90;;;;;;5052176;28;20200;-45
2023/03/09 05:39:53;;;;;;;0.10;0.10;;;8.70;99.90;;;;;;5055126;28;20258;-47
2023/03/09 05:42:20;;;;;;;0.47;0.47;;;8.80;99.90;;;;;;5052770;28;20211;-46
2023/03/09 05:44:47;;;;;;;0.00;0.00;;;8.70;99.90;;;;;;5049072;28;20217;-47
2023/03/09 05:47:14;;;;;;;1.23;0.13;;;8.70;99.90;;;;;;5049882;28;20207;-48
2023/03/09 05:49:41;;;;;;;0.43;0.00;;;8.70;99.90;;;;;;5051644;28;20203;-47
2023/03/09 05:52:08;;;;;;;0.13;0.10;;;8.60;99.90;;;;;;5045477;28;20196;-48
2023/03/09 05:54:37;;;;;;;0.10;0.10;;;8.60;99.90;;;;;;5049548;28;20275;-46
2023/03/09 05:57:04;;;;;;;1.50;0.10;;;8.40;99.90;;;;;;5052384;28;20236;-46
2023/03/09 05:59:31;;;;;;;0.93;0.30;;;8.40;99.90;;;;;;5051220;28;20566;-46
2023/03/09 06:01:58;;;;;;;0.23;0.00;;;8.50;99.90;;;;;;5046465;28;20209;-48
2023/03/09 06:04:26;;;;;;;0.10;0.10;;;8.50;99.90;;;;;;5052685;28;20604;-47
2023/03/09 06:06:53;;;;;;;0.30;0.00;;;8.50;99.90;;;;;;5048653;28;20225;-45
2023/03/09 06:09:20;;;;;;;0.13;0.10;;;8.50;99.90;;;;;;5058316;28;20284;-46
2023/03/09 06:11:49;;;;;;;1.17;0.10;;;8.50;99.90;;;;;;5051134;28;20206;-46
2023/03/09 06:14:16;;;;;;;4.90;0.20;;;8.40;99.90;;;;;;5054205;28;20216;-48
2023/03/09 06:16:43;;;;;;;0.40;0.30;;;8.30;99.90;;;;;;5052269;28;20195;-47
2023/03/09 06:19:12;;;;;;;1.40;0.47;;;8.40;99.90;;;;;;5052366;28;20219;-47
2023/03/09 06:21:41;;;;;;;0.17;0.17;;;8.40;99.90;;;;;;5052957;28;20221;-47
2023/03/09 06:24:10;;;;;;;0.20;0.10;;;8.40;99.90;;;;;;5051877;28;20226;-47
2023/03/09 06:26:38;;;;;;;0.20;0.10;;;8.40;99.90;;;;;;5051933;28;20786;-46
2023/03/09 06:29:07;;;;;;;1.50;0.23;;;8.30;99.90;;;;;;5050648;28;20199;-47
2023/03/09 06:31:34;;;;;;;0.30;0.20;;;8.30;99.90;;;;;;5051862;28;20248;-47
2023/03/09 06:34:02;;;;;;;3.60;0.67;;;8.30;99.90;;;;;;5050832;28;20221;-46
2023/03/09 06:36:29;;;;;;;0.97;0.50;;;8.20;99.90;;;;;;5050585;28;20194;-46
2023/03/09 06:38:56;;;;;;;1.50;0.23;;;8.20;99.90;;;;;;5051537;28;20201;-45
2023/03/09 06:41:29;;;;;;;1.90;0.53;;;8.20;99.90;;;;;;5050858;28;20261;-48
2023/03/09 06:43:58;;;;;;;0.10;0.10;;;8.10;99.90;;;;;;5041746;28;20212;-45
2023/03/09 06:46:27;;;;;;;0.50;0.27;;;8.20;99.90;;;;;;5045645;28;20279;-47
2023/03/09 06:48:54;;;;;;;6.83;4.63;;;8.20;99.90;;;;;;5047601;28;20194;-48
2023/03/09 06:51:21;;;;;;;4.57;3.13;;;8.30;99.90;;;;;;5051305;28;20199;-47
2023/03/09 06:53:49;;;;;;;3.27;1.60;;;8.30;99.90;;;;;;5046361;28;20729;-46
2023/03/09 06:56:16;;;;;;;1.60;1.33;;;8.40;99.90;;;;;;5057744;28;20222;-47
2023/03/09 06:58:45;;;;;;;1.67;1.07;;;8.40;99.90;;;;;;5052967;28;20272;-47
2023/03/09 07:01:14;;;;;;;0.50;0.40;;;8.40;99.90;;;;;;5051489;28;20201;-47
2023/03/09 07:03:43;;;;;;;0.50;0.50;;;8.40;99.90;;;;;;5055342;28;20292;-48
2023/03/09 07:06:10;;;;;;;1.07;0.50;;;8.50;99.90;;;;;;5053510;28;20219;-46
2023/03/09 07:08:37;;;;;;;1.53;0.50;;;8.40;99.90;;;;;;5056413;28;20201;-47
2023/03/09 07:11:05;;;;;;;0.77;0.77;;;8.40;99.90;;;;;;5057016;28;20256;-48
2023/03/09 07:13:32;;;;;;;0.97;0.83;;;8.40;99.90;;;;;;5052779;28;20226;-47
2023/03/09 07:16:02;;;;;;;1.17;0.93;;;8.40;99.90;;;;;;5055587;28;20293;-48
2023/03/09 07:18:29;;;;;;;2.87;0.60;;;8.40;99.90;;;;;;5055222;28;20203;-46
2023/03/09 07:20:59;;;;;;;0.77;0.40;;;8.50;99.90;;;;;;5057836;28;20789;-47
2023/03/09 07:23:26;;;;;;;0.20;0.20;;;8.50;99.90;;;;;;5052718;28;20217;-47
2023/03/09 07:25:53;;;;;;;0.90;0.20;;;8.50;99.90;;;;;;5058079;28;20279;-46
2023/03/09 07:28:20;;;;;;;2.13;0.20;;;8.50;99.90;;;;;;5061039;28;20218;-46
2023/03/09 07:30:47;;;;;;;5.93;0.30;;;8.60;99.90;;;;;;5073113;28;20203;-47
2023/03/09 07:33:14;;;;;;;4.80;0.20;;;8.60;99.90;;;;;;5058217;28;20215;-47
2023/03/09 07:35:41;;;;;;;0.57;0.33;;;8.70;99.90;;;;;;5057174;28;20631;-47
2023/03/09 07:38:10;;;;;;;0.50;0.10;;;8.80;99.90;;;;;;5056744;28;20203;-48
2023/03/09 07:40:37;;;;;;;6.30;0.40;;;8.80;99.90;;;;;;5048741;28;20204;-47
2023/03/09 07:43:04;;;;;;;0.43;0.07;;;8.80;99.90;;;;;;5056838;28;20198;-47
2023/03/09 07:45:31;;;;;;;0.10;0.10;;;8.80;99.90;;;;;;5056695;28;20210;-47
2023/03/09 07:47:59;;;;;;;0.20;0.00;;;8.80;99.90;;;;;;5057654;28;20234;-46
2023/03/09 07:50:26;;;;;;;1.90;0.20;;;8.80;99.90;;;;;;5057853;28;20734;-48
2023/03/09 07:52:55;;;;;;;0.73;0.43;;;8.90;99.90;;;;;;5057518;28;20199;-47
2023/03/09 07:55:23;;;;;;;0.10;0.10;;;9.00;99.90;;;;;;5057818;28;20211;-47
2023/03/09 07:57:50;;;;;;;0.20;0.20;;;9.00;99.90;;;;;;5057407;28;20207;-46
2023/03/09 08:00:22;;;;;;;1.03;0.00;;;9.00;99.90;;;;;;5058005;28;20205;-47
2023/03/09 08:02:53;;;;;;;0.10;0.10;;;9.00;99.90;;;;;;5054597;28;20205;-48
2023/03/09 08:05:20;;;;;;;0.10;0.00;;;9.10;99.90;;;;;;5055363;28;20206;-47
2023/03/09 08:07:51;;;;;;;3.50;0.10;;;9.00;99.90;;;;;;5056530;28;20200;-47
2023/03/09 08:10:19;;;;;;;2.00;0.20;;;8.90;99.90;;;;;;5054319;28;20199;-46
2023/03/09 08:12:50;;;;;;;0.17;0.10;;;9.10;99.90;;;;;;5053595;28;20198;-48
2023/03/09 08:15:20;;;;;;;0.47;0.20;;;9.10;99.90;;;;;;5053678;28;20199;-48
2023/03/09 08:17:50;;;;;;;1.70;0.23;;;9.10;99.90;;;;;;5051656;28;20244;-49
2023/03/09 08:20:18;;;;;;;2.13;0.30;;;9.00;99.90;;;;;;5048762;28;20210;-48
2023/03/09 08:22:45;;;;;;;2.40;0.57;;;9.00;99.90;;;;;;5047178;28;20247;-47
2023/03/09 08:25:12;;;;;;;0.87;0.10;;;9.10;99.90;;;;;;5052187;28;20853;-47
2023/03/09 08:27:40;;;;;;;0.23;0.20;;;9.10;99.90;;;;;;5054103;28;20235;-47
2023/03/09 08:30:11;;;;;;;2.73;0.30;;;9.20;99.90;;;;;;5055380;28;20191;-47
2023/03/09 08:32:39;;;;;;;3.50;0.23;;;9.30;99.90;;;;;;5053138;28;20203;-46
2023/03/09 08:35:07;;;;;;;0.57;0.20;;;9.50;99.90;;;;;;5053073;28;20637;-47
2023/03/09 08:37:34;;;;;;;0.67;0.10;;;9.60;99.90;;;;;;5050151;28;20207;-47
2023/03/09 08:40:01;;;;;;;1.17;0.20;;;9.70;99.90;;;;;;5053468;28;20204;-46
2023/03/09 08:42:27;;;;;;;2.70;0.47;;;9.70;99.90;;;;;;5054575;28;20202;-46
2023/03/09 08:44:54;;;;;;;0.87;0.30;;;9.80;99.90;;;;;;5052025;28;20218;-48
2023/03/09 08:47:23;;;;;;;1.43;0.20;;;9.80;99.90;;;;;;5053509;28;20269;-47
2023/03/09 08:49:50;;;;;;;0.73;0.33;;;9.90;99.90;;;;;;5053689;28;20238;-46
2023/03/09 08:52:17;;;;;;;0.70;0.40;;;10.00;99.90;;;;;;5052804;28;20215;-47
2023/03/09 08:54:47;;;;;;;1.80;0.30;;;10.00;99.90;;;;;;5053547;28;20235;-48
2023/03/09 08:57:14;;;;;;;0.60;0.30;;;10.20;99.90;;;;;;5053553;28;20619;-48
2023/03/09 08:59:40;;;;;;;1.00;0.10;;;10.20;99.90;;;;;;5053634;28;20202;-47
2023/03/09 09:02:13;;;;;;;0.37;0.20;;;10.20;99.90;;;;;;5053855;28;20206;-48
2023/03/09 09:04:42;;;;;;;1.60;0.63;;;10.20;99.90;;;;;;5053512;28;20282;-47
2023/03/09 09:07:09;;;;;;;3.63;0.43;;;10.20;99.90;;;;;;5053255;28;20212;-46
2023/03/09 09:09:36;;;;;;;3.23;0.30;;;10.20;99.90;;;;;;5052074;28;20231;-47
2023/03/09 09:12:03;;;;;;;1.13;0.30;;;10.40;99.90;;;;;;5052888;28;20206;-47
2023/03/09 09:14:30;;;;;;;1.27;0.60;;;10.50;99.90;;;;;;5053251;28;20285;-48
2023/03/09 09:16:57;;;;;;;1.30;0.30;;;10.70;99.90;;;;;;5053138;28;20194;-47
2023/03/09 09:19:24;;;;;;;2.77;0.47;;;10.90;99.90;;;;;;5052634;28;20238;-48
2023/03/09 09:21:54;;;;;;;1.50;0.47;;;11.10;99.90;;;;;;5052664;28;20253;-47
2023/03/09 09:24:21;;;;;;;3.63;0.43;;;11.40;99.90;;;;;;5053102;28;20257;-47
2023/03/09 09:26:48;;;;;;;0.90;0.50;;;11.60;99.90;;;;;;5052369;28;20221;-48
2023/03/09 09:29:16;;;;;;;0.30;0.30;;;11.60;99.90;;;;;;5052946;28;20198;-47
2023/03/09 09:31:43;;;;;;;1.43;0.30;;;11.50;99.90;;;;;;5053011;28;20274;-48
2023/03/09 09:34:10;;;;;;;1.67;0.70;;;11.40;99.90;;;;;;5054384;28;20317;-48
2023/03/09 09:36:39;;;;;;;2.20;0.30;;;11.40;99.90;;;;;;5053169;28;20234;-47
2023/03/09 09:39:07;;;;;;;3.43;0.40;;;11.40;99.90;;;;;;5052545;28;20203;-48
2023/03/09 09:41:41;;;;;;;1.73;0.40;;;11.40;99.90;;;;;;5051105;28;20193;-47
2023/03/09 09:44:13;;;;;;;0.77;0.33;;;11.40;99.90;;;;;;5051454;28;20235;-47
2023/03/09 09:46:41;;;;;;;2.40;1.63;;;11.50;99.90;;;;;;5052608;28;20800;-47
2023/03/09 09:49:15;;;;;;;2.93;0.40;;;11.50;99.90;;;;;;5052710;28;20208;-47
2023/03/09 09:51:54;;;;;;;3.13;0.60;;;11.50;99.90;;;;;;5052562;28;20262;-46
2023/03/09 09:54:34;;;;;;;2.13;0.60;;;11.60;99.90;;;;;;5050264;28;20294;-47
2023/03/09 09:57:03;;;;;;;4.47;1.30;;;11.60;99.90;;;;;;5049590;28;20204;-48
2023/03/09 09:59:38;;;;;;;5.90;0.57;;;11.50;99.90;;;;;;5052247;28;20250;-47
2023/03/09 10:02:23;;;;;;;1.57;0.40;;;11.60;99.90;;;;;;5050134;28;20201;-47
2023/03/09 10:04:56;;;;;;;1.77;0.60;;;11.60;99.90;;;;;;5051304;28;20381;-47
2023/03/09 10:07:25;;;;;;;2.77;0.70;;;11.70;99.90;;;;;;5051137;28;20697;-47
2023/03/09 10:09:57;;;;;;;2.73;0.60;;;11.60;99.90;;;;;;5049073;28;20301;-47
2023/03/09 10:12:24;;;;;;;1.90;0.80;;;11.50;99.90;;;;;;5044498;28;20568;-47
2023/03/09 10:14:55;;;;;;;4.13;0.30;;;11.70;99.90;;;;;;5052042;28;20774;-47
2023/03/09 10:17:29;;;;;;;4.17;0.63;;;11.70;99.90;;;;;;5050777;28;20200;-48
2023/03/09 10:20:01;;;;;;;3.15;0.60;;;11.70;99.90;;;;;;5047993;28;20454;-47
2023/03/09 10:22:31;;;;;;;5.43;0.68;;;11.70;99.90;;;;;;5042700;28;21004;-48
2023/03/09 10:25:00;;;;;;;2.40;0.40;;;11.70;99.90;;;;;;5050381;28;20228;-47
2023/03/09 10:27:36;;;;;;;2.43;0.73;;;11.90;99.90;;;;;;5050057;28;20230;-47
2023/03/09 10:30:14;;;;;;;4.50;0.70;;;12.00;99.90;;;;;;5051710;28;20283;-47
2023/03/09 10:32:53;;;;;;;1.90;0.40;;;12.10;99.90;;;;;;5048730;28;20646;-48
2023/03/09 10:35:26;;;;;;;3.23;0.70;;;12.20;99.90;;;;;;5051435;28;20262;-48
2023/03/09 10:37:53;;;;;;;2.77;0.90;;;12.30;99.90;;;;;;5050899;28;20194;-48
2023/03/09 10:40:24;;;;;;;3.03;0.70;;;12.30;99.90;;;;;;5051670;28;20304;-47
2023/03/09 10:42:52;;;;;;;1.80;0.33;;;12.30;99.90;;;;;;5050300;28;20703;-48
2023/03/09 10:45:26;;;;;;;6.53;0.90;;;12.20;99.90;;;;;;5051688;28;20233;-48
2023/03/09 10:47:55;;;;;;;2.13;0.67;;;12.20;99.90;;;;;;5050542;28;20717;-48
2023/03/09 10:50:27;;;;;;;5.60;1.40;;;12.20;99.90;;;;;;5051362;28;20194;-48
2023/03/09 10:52:55;;;;;;;3.53;0.70;;;12.20;99.90;;;;;;5049453;28;20196;-47
2023/03/09 10:55:42;;;;;;;5.40;0.53;;;12.30;99.90;;;;;;5049514;28;20206;-48
2023/03/09 10:58:16;;;;;;;3.23;0.37;;;12.50;99.90;;;;;;5031561;28;20266;-47
2023/03/09 11:00:59;;;;;;;1.63;0.40;;;12.70;99.90;;;;;;5032728;28;20295;-48
2023/03/09 11:03:31;;;;;;;1.37;0.30;;;12.80;99.90;;;;;;5049847;28;20240;-48
2023/03/09 11:06:33;;;;;;;2.20;0.90;;;12.80;99.90;;;;;;5050918;28;20203;-47
2023/03/09 11:09:12;;;;;;;2.37;1.10;;;12.80;99.90;;;;;;5030342;28;20195;-47
2023/03/09 11:11:41;;;;;;;1.33;0.90;;;12.70;99.90;;;;;;5071258;28;20683;-47
2023/03/09 11:14:22;;;;;;;2.10;0.40;;;12.70;99.90;;;;;;5071528;28;20272;-47
2023/03/09 11:16:51;;;;;;;2.00;0.50;;;12.60;99.90;;;;;;5050209;28;20200;-47
2023/03/09 11:19:19;;;;;;;1.40;0.73;;;12.60;99.90;;;;;;5051955;28;20204;-47
2023/03/09 11:21:53;;;;;;;2.80;0.40;;;12.60;99.90;;;;;;5051748;28;20197;-47
2023/03/09 11:24:21;;;;;;;3.47;0.50;;;12.40;99.90;;;;;;5051184;28;20240;-48
2023/03/09 11:26:55;;;;;;;2.77;0.40;;;12.20;99.90;;;;;;5051376;28;20223;-47
2023/03/09 11:29:29;;;;;;;0.57;0.40;;;12.20;99.90;;;;;;5043289;28;20201;-47
2023/03/09 11:31:57;;;;;;;6.53;0.80;;;12.20;99.90;;;;;;5047919;28;20220;-48
2023/03/09 11:34:28;;;;;;;2.83;0.60;;;12.20;99.90;;;;;;5051078;28;20259;-48
2023/03/09 11:37:02;;;;;;;0.97;0.40;;;12.20;99.90;;;;;;5051419;28;20205;-48
2023/03/09 11:39:34;;;;;;;2.27;0.50;;;12.20;99.90;;;;;;5050870;28;20210;-47
2023/03/09 11:42:06;;;;;;;2.30;0.50;;;12.20;99.90;;;;;;5044788;28;20290;-47
2023/03/09 11:44:36;;;;;;;3.77;1.13;;;12.30;99.90;;;;;;5052557;28;20231;-47
2023/03/09 11:47:06;;;;;;;1.60;0.40;;;12.60;99.90;;;;;;5054819;28;20277;-47
2023/03/09 11:49:36;;;;;;;1.53;0.30;;;12.80;99.90;;;;;;5052245;28;20205;-47
2023/03/09 11:52:07;;;;;;;2.43;0.60;;;13.00;99.90;;;;;;5048713;28;20194;-48
2023/03/09 11:54:38;;;;;;;2.87;0.57;;;13.30;99.90;;;;;;5054588;28;20235;-47
2023/03/09 11:57:11;;;;;;;1.23;0.40;;;13.50;99.90;;;;;;5053910;28;20190;-48
2023/03/09 11:59:45;;;;;;;3.30;0.73;;;13.70;99.90;;;;;;5053532;28;20733;-47
2023/03/09 12:02:19;;;;;;;1.93;0.40;;;13.70;99.90;;;;;;5054656;28;20205;-48
2023/03/09 12:04:48;;;;;;;1.23;0.50;;;13.70;99.90;;;;;;5054637;28;20222;-47
2023/03/09 12:07:21;;;;;;;2.57;0.70;;;13.80;99.90;;;;;;5054412;28;20256;-48
2023/03/09 12:09:55;;;;;;;4.50;0.77;;;13.80;99.90;;;;;;5034195;28;20213;-47
2023/03/09 12:12:30;;;;;;;1.50;0.67;;;13.90;99.90;;;;;;5041816;28;20205;-48
2023/03/09 12:15:03;;;;;;;2.43;0.50;;;14.00;99.90;;;;;;5046067;28;20275;-48
2023/03/09 12:17:36;;;;;;;2.00;0.60;;;14.30;99.90;;;;;;5054470;28;20244;-48
2023/03/09 12:20:04;;;;;;;1.80;0.40;;;14.50;99.90;;;;;;5052899;28;20251;-48
2023/03/09 12:22:34;;;;;;;1.13;0.50;;;14.70;99.90;;;;;;5052327;28;20631;-48
2023/03/09 12:25:03;;;;;;;3.00;0.50;;;14.60;99.90;;;;;;5045803;28;20225;-48
2023/03/09 12:27:34;;;;;;;2.13;1.27;;;14.80;99.90;;;;;;5052986;28;20209;-47
2023/03/09 12:30:21;;;;;;;3.27;0.63;;;15.00;99.90;;;;;;5035310;28;20264;-47
2023/03/09 12:32:49;;;;;;;2.33;0.70;;;15.10;99.90;;;;;;5052317;28;20260;-47
2023/03/09 12:35:55;;;;;;;2.97;0.47;;;15.30;99.90;;;;;;5053928;28;20247;-48
2023/03/09 12:38:26;;;;;;;1.30;0.47;;;15.40;99.90;;;;;;5053875;28;20279;-47
2023/03/09 12:40:54;;;;;;;2.93;0.80;;;15.10;99.90;;;;;;5051469;28;20679;-47
2023/03/09 12:43:55;;;;;;;3.47;0.47;;;15.10;99.90;;;;;;5053451;28;20217;-47
2023/03/09 12:46:58;;;;;;;2.57;0.50;;;15.10;99.90;;;;;;5053912;28;20255;-47
2023/03/09 12:49:29;;;;;;;1.87;0.50;;;14.80;99.90;;;;;;5049909;28;20193;-46
2023/03/09 12:52:22;;;;;;;1.73;0.60;;;14.80;99.90;;;;;;5052816;28;20252;-47
2023/03/09 12:55:00;;;;;;;5.87;1.27;;;14.60;99.90;;;;;;5044172;28;20230;-47
2023/03/09 12:57:27;;;;;;;2.63;1.00;;;14.70;99.90;;;;;;5053663;28;20197;-47
2023/03/09 12:59:56;;;;;;;1.80;0.60;;;14.90;99.90;;;;;;5051115;28;20228;-47
2023/03/09 13:02:34;;;;;;;3.83;0.50;;;15.00;99.90;;;;;;5053452;28;20264;-47
2023/03/09 13:05:30;;;;;;;1.63;0.30;;;15.10;99.90;;;;;;5033422;28;20734;-47